sensor_id;sensor_type;location;lat;lon;timestamp;pressure;altitude;pressure_sealevel;temperature
20103;BMP180;10210;52.284;9.892;2023-02-15T00:01:47;101907.00;;;9.30
20103;BMP180;10210;52.284;9.892;2023-02-15T00:04:16;101898.00;;;9.30
20103;BMP180;10210;52.284;9.892;2023-02-15T00:06:42;101894.00;;;9.30
20103;BMP180;10210;52.284;9.892;2023-02-15T00:09:09;101892.00;;;9.30
20103;BMP180;10210;52.284;9.892;2023-02-15T00:11:35;101895.00;;;9.20
20103;BMP180;10210;52.284;9.892;2023-02-15T00:14:22;101892.00;;;9.20
20103;BMP180;10210;52.284;9.892;2023-02-15T00:16:51;101896.00;;;9.20
20103;BMP180;10210;52.284;9.892;2023-02-15T00:19:19;101893.00;;;9.20
20103;BMP180;10210;52.284;9.892;2023-02-15T00:21:47;101904.00;;;9.20
20103;BMP180;10210;52.284;9.892;2023-02-15T00:24:16;101900.00;;;9.20
20103;BMP180;10210;52.284;9.892;2023-02-15T00:26:43;101897.00;;;9.20
20103;BMP180;10210;52.284;9.892;2023-02-15T00:29:10;101882.00;;;9.20
20103;BMP180;10210;52.284;9.892;2023-02-15T00:31:37;101886.00;;;9.20
20103;BMP180;10210;52.284;9.892;2023-02-15T00:34:06;101876.00;;;9.10
20103;BMP180;10210;52.284;9.892;2023-02-15T00:36:32;101874.00;;;9.10
20103;BMP180;10210;52.284;9.892;2023-02-15T00:38:58;101886.00;;;9.10
20103;BMP180;10210;52.284;9.892;2023-02-15T00:41:25;101883.00;;;9.10
20103;BMP180;10210;52.284;9.892;2023-02-15T00:43:50;101879.00;;;9.10
20103;BMP180;10210;52.284;9.892;2023-02-15T00:46:16;101873.00;;;9.10
20103;BMP180;10210;52.284;9.892;2023-02-15T00:48:42;101870.00;;;9.10
20103;BMP180;10210;52.284;9.892;2023-02-15T00:51:08;101873.00;;;9.00
20103;BMP180;10210;52.284;9.892;2023-02-15T00:53:33;101863.00;;;9.00
20103;BMP180;10210;52.284;9.892;2023-02-15T00:55:59;101865.00;;;8.90
20103;BMP180;10210;52.284;9.892;2023-02-15T00:58:25;101865.00;;;8.90
20103;BMP180;10210;52.284;9.892;2023-02-15T01:00:52;101870.00;;;8.90
20103;BMP180;10210;52.284;9.892;2023-02-15T01:03:19;101858.00;;;8.90
20103;BMP180;10210;52.284;9.892;2023-02-15T01:05:48;101864.00;;;8.80
20103;BMP180;10210;52.284;9.892;2023-02-15T01:08:15;101862.00;;;8.80
20103;BMP180;10210;52.284;9.892;2023-02-15T01:10:41;101864.00;;;8.80
20103;BMP180;10210;52.284;9.892;2023-02-15T01:13:09;101848.00;;;8.70
20103;BMP180;10210;52.284;9.892;2023-02-15T01:15:35;101845.00;;;8.70
20103;BMP180;10210;52.284;9.892;2023-02-15T01:18:01;101835.00;;;8.60
20103;BMP180;10210;52.284;9.892;2023-02-15T01:20:29;101843.00;;;8.50
20103;BMP180;10210;52.284;9.892;2023-02-15T01:22:56;101837.00;;;8.50
20103;BMP180;10210;52.284;9.892;2023-02-15T01:25:23;101845.00;;;8.50
20103;BMP180;10210;52.284;9.892;2023-02-15T01:27:49;101847.00;;;8.60
20103;BMP180;10210;52.284;9.892;2023-02-15T01:30:16;101851.00;;;8.60
20103;BMP180;10210;52.284;9.892;2023-02-15T01:32:42;101839.00;;;8.60
20103;BMP180;10210;52.284;9.892;2023-02-15T01:35:10;101853.00;;;8.60
20103;BMP180;10210;52.284;9.892;2023-02-15T01:37:37;101838.00;;;8.60
20103;BMP180;10210;52.284;9.892;2023-02-15T01:40:07;101839.00;;;8.50
20103;BMP180;10210;52.284;9.892;2023-02-15T01:42:33;101840.00;;;8.50
20103;BMP180;10210;52.284;9.892;2023-02-15T01:45:26;101844.00;;;8.50
20103;BMP180;10210;52.284;9.892;2023-02-15T01:47:58;101837.00;;;8.50
20103;BMP180;10210;52.284;9.892;2023-02-15T01:50:56;101836.00;;;8.50
20103;BMP180;10210;52.284;9.892;2023-02-15T01:53:32;101835.00;;;8.50
20103;BMP180;10210;52.284;9.892;2023-02-15T01:56:07;101833.00;;;8.50
20103;BMP180;10210;52.284;9.892;2023-02-15T01:58:35;101824.00;;;8.50
20103;BMP180;10210;52.284;9.892;2023-02-15T02:01:02;101815.00;;;8.60
20103;BMP180;10210;52.284;9.892;2023-02-15T02:06:32;101816.00;;;8.50
20103;BMP180;10210;52.284;9.892;2023-02-15T02:08:58;101812.00;;;8.50
20103;BMP180;10210;52.284;9.892;2023-02-15T02:11:24;101816.00;;;8.40
20103;BMP180;10210;52.284;9.892;2023-02-15T02:13:52;101806.00;;;8.40
20103;BMP180;10210;52.284;9.892;2023-02-15T02:16:29;101806.00;;;8.40
20103;BMP180;10210;52.284;9.892;2023-02-15T02:22:30;101801.00;;;8.30
20103;BMP180;10210;52.284;9.892;2023-02-15T02:32:09;101795.00;;;8.30
20103;BMP180;10210;52.284;9.892;2023-02-15T02:34:50;101794.00;;;8.20
20103;BMP180;10210;52.284;9.892;2023-02-15T02:40:08;101779.00;;;8.20
20103;BMP180;10210;52.284;9.892;2023-02-15T02:42:49;101779.00;;;8.20
20103;BMP180;10210;52.284;9.892;2023-02-15T02:45:32;101772.00;;;8.20
20103;BMP180;10210;52.284;9.892;2023-02-15T02:48:11;101768.00;;;8.20
20103;BMP180;10210;52.284;9.892;2023-02-15T02:50:40;101774.00;;;8.30
20103;BMP180;10210;52.284;9.892;2023-02-15T02:53:07;101772.00;;;8.30
20103;BMP180;10210;52.284;9.892;2023-02-15T02:55:50;101767.00;;;8.30
20103;BMP180;10210;52.284;9.892;2023-02-15T02:58:30;101763.00;;;8.30
20103;BMP180;10210;52.284;9.892;2023-02-15T03:01:27;101767.00;;;8.30
20103;BMP180;10210;52.284;9.892;2023-02-15T03:04:05;101756.00;;;8.30
20103;BMP180;10210;52.284;9.892;2023-02-15T03:06:42;101753.00;;;8.30
20103;BMP180;10210;52.284;9.892;2023-02-15T03:09:17;101762.00;;;8.20
20103;BMP180;10210;52.284;9.892;2023-02-15T03:11:45;101744.00;;;8.20
20103;BMP180;10210;52.284;9.892;2023-02-15T03:14:14;101747.00;;;8.20
20103;BMP180;10210;52.284;9.892;2023-02-15T03:16:47;101740.00;;;8.10
20103;BMP180;10210;52.284;9.892;2023-02-15T03:19:25;101742.00;;;8.10
20103;BMP180;10210;52.284;9.892;2023-02-15T03:22:00;101743.00;;;8.20
20103;BMP180;10210;52.284;9.892;2023-02-15T03:27:07;101739.00;;;8.10
20103;BMP180;10210;52.284;9.892;2023-02-15T03:29:35;101734.00;;;8.20
20103;BMP180;10210;52.284;9.892;2023-02-15T03:32:07;101735.00;;;8.20
20103;BMP180;10210;52.284;9.892;2023-02-15T03:34:34;101732.00;;;8.20
20103;BMP180;10210;52.284;9.892;2023-02-15T03:37:19;101738.00;;;8.10
20103;BMP180;10210;52.284;9.892;2023-02-15T03:39:57;101727.00;;;8.10
20103;BMP180;10210;52.284;9.892;2023-02-15T03:42:48;101728.00;;;8.10
20103;BMP180;10210;52.284;9.892;2023-02-15T03:45:22;101727.00;;;8.10
20103;BMP180;10210;52.284;9.892;2023-02-15T03:47:54;101734.00;;;8.10
20103;BMP180;10210;52.284;9.892;2023-02-15T03:50:29;101729.00;;;8.10
20103;BMP180;10210;52.284;9.892;2023-02-15T03:53:18;101739.00;;;8.00
20103;BMP180;10210;52.284;9.892;2023-02-15T03:55:55;101730.00;;;8.00
20103;BMP180;10210;52.284;9.892;2023-02-15T03:58:21;101732.00;;;8.00
20103;BMP180;10210;52.284;9.892;2023-02-15T04:01:33;101751.00;;;8.00
20103;BMP180;10210;52.284;9.892;2023-02-15T04:04:23;101734.00;;;8.00
20103;BMP180;10210;52.284;9.892;2023-02-15T04:06:50;101741.00;;;8.00
20103;BMP180;10210;52.284;9.892;2023-02-15T04:09:16;101742.00;;;7.90
20103;BMP180;10210;52.284;9.892;2023-02-15T04:12:00;101743.00;;;7.90
20103;BMP180;10210;52.284;9.892;2023-02-15T04:14:25;101734.00;;;7.80
20103;BMP180;10210;52.284;9.892;2023-02-15T04:17:10;101733.00;;;7.80
20103;BMP180;10210;52.284;9.892;2023-02-15T04:19:36;101734.00;;;7.80
20103;BMP180;10210;52.284;9.892;2023-02-15T04:22:20;101731.00;;;7.80
20103;BMP180;10210;52.284;9.892;2023-02-15T04:25:05;101725.00;;;7.80
20103;BMP180;10210;52.284;9.892;2023-02-15T04:27:45;101729.00;;;7.80
20103;BMP180;10210;52.284;9.892;2023-02-15T04:30:15;101717.00;;;7.80
20103;BMP180;10210;52.284;9.892;2023-02-15T04:32:41;101725.00;;;7.80
20103;BMP180;10210;52.284;9.892;2023-02-15T04:35:08;101707.00;;;7.80
20103;BMP180;10210;52.284;9.892;2023-02-15T04:37:35;101709.00;;;7.70
20103;BMP180;10210;52.284;9.892;2023-02-15T04:40:01;101714.00;;;7.70
20103;BMP180;10210;52.284;9.892;2023-02-15T04:42:28;101718.00;;;7.70
20103;BMP180;10210;52.284;9.892;2023-02-15T04:44:54;101705.00;;;7.70
20103;BMP180;10210;52.284;9.892;2023-02-15T04:47:20;101699.00;;;7.70
20103;BMP180;10210;52.284;9.892;2023-02-15T04:49:46;101705.00;;;7.70
20103;BMP180;10210;52.284;9.892;2023-02-15T04:52:11;101701.00;;;7.70
20103;BMP180;10210;52.284;9.892;2023-02-15T04:54:37;101704.00;;;7.70
20103;BMP180;10210;52.284;9.892;2023-02-15T04:57:04;101721.00;;;7.70
20103;BMP180;10210;52.284;9.892;2023-02-15T04:59:31;101698.00;;;7.70
20103;BMP180;10210;52.284;9.892;2023-02-15T05:01:57;101702.00;;;7.70
20103;BMP180;10210;52.284;9.892;2023-02-15T05:04:22;101694.00;;;7.70
20103;BMP180;10210;52.284;9.892;2023-02-15T05:06:48;101692.00;;;7.60
20103;BMP180;10210;52.284;9.892;2023-02-15T05:09:15;101700.00;;;7.60
20103;BMP180;10210;52.284;9.892;2023-02-15T05:11:41;101690.00;;;7.50
20103;BMP180;10210;52.284;9.892;2023-02-15T05:14:06;101693.00;;;7.50
20103;BMP180;10210;52.284;9.892;2023-02-15T05:16:32;101679.00;;;7.50
20103;BMP180;10210;52.284;9.892;2023-02-15T05:18:58;101680.00;;;7.50
20103;BMP180;10210;52.284;9.892;2023-02-15T05:21:23;101684.00;;;7.50
20103;BMP180;10210;52.284;9.892;2023-02-15T05:23:49;101681.00;;;7.40
20103;BMP180;10210;52.284;9.892;2023-02-15T05:26:22;101674.00;;;7.40
20103;BMP180;10210;52.284;9.892;2023-02-15T05:29:07;101680.00;;;7.30
20103;BMP180;10210;52.284;9.892;2023-02-15T05:31:33;101683.00;;;7.30
20103;BMP180;10210;52.284;9.892;2023-02-15T05:34:00;101677.00;;;7.30
20103;BMP180;10210;52.284;9.892;2023-02-15T05:36:26;101678.00;;;7.30
20103;BMP180;10210;52.284;9.892;2023-02-15T05:38:53;101683.00;;;7.30
20103;BMP180;10210;52.284;9.892;2023-02-15T05:41:19;101686.00;;;7.30
20103;BMP180;10210;52.284;9.892;2023-02-15T05:43:45;101686.00;;;7.40
20103;BMP180;10210;52.284;9.892;2023-02-15T05:46:11;101683.00;;;7.40
20103;BMP180;10210;52.284;9.892;2023-02-15T05:48:37;101686.00;;;7.40
20103;BMP180;10210;52.284;9.892;2023-02-15T05:51:07;101684.00;;;7.40
20103;BMP180;10210;52.284;9.892;2023-02-15T05:53:36;101686.00;;;7.30
20103;BMP180;10210;52.284;9.892;2023-02-15T05:56:04;101680.00;;;7.30
20103;BMP180;10210;52.284;9.892;2023-02-15T05:58:36;101682.00;;;7.30
20103;BMP180;10210;52.284;9.892;2023-02-15T06:01:18;101687.00;;;7.30
20103;BMP180;10210;52.284;9.892;2023-02-15T06:03:45;101683.00;;;7.20
20103;BMP180;10210;52.284;9.892;2023-02-15T06:06:11;101687.00;;;7.20
20103;BMP180;10210;52.284;9.892;2023-02-15T06:08:37;101680.00;;;7.20
20103;BMP180;10210;52.284;9.892;2023-02-15T06:11:04;101677.00;;;7.20
20103;BMP180;10210;52.284;9.892;2023-02-15T06:13:30;101676.00;;;7.20
20103;BMP180;10210;52.284;9.892;2023-02-15T06:15:56;101678.00;;;7.20
20103;BMP180;10210;52.284;9.892;2023-02-15T06:18:22;101667.00;;;7.10
20103;BMP180;10210;52.284;9.892;2023-02-15T06:20:48;101666.00;;;7.10
20103;BMP180;10210;52.284;9.892;2023-02-15T06:23:15;101675.00;;;7.20
20103;BMP180;10210;52.284;9.892;2023-02-15T06:25:41;101677.00;;;7.10
20103;BMP180;10210;52.284;9.892;2023-02-15T06:28:07;101679.00;;;7.10
20103;BMP180;10210;52.284;9.892;2023-02-15T06:30:33;101678.00;;;7.10
20103;BMP180;10210;52.284;9.892;2023-02-15T06:32:59;101673.00;;;7.10
20103;BMP180;10210;52.284;9.892;2023-02-15T06:35:24;101669.00;;;7.10
20103;BMP180;10210;52.284;9.892;2023-02-15T06:37:50;101675.00;;;7.10
20103;BMP180;10210;52.284;9.892;2023-02-15T06:40:16;101672.00;;;7.00
20103;BMP180;10210;52.284;9.892;2023-02-15T06:42:42;101673.00;;;7.00
20103;BMP180;10210;52.284;9.892;2023-02-15T06:45:09;101669.00;;;7.00
20103;BMP180;10210;52.284;9.892;2023-02-15T06:47:35;101671.00;;;6.90
20103;BMP180;10210;52.284;9.892;2023-02-15T06:50:02;101670.00;;;7.00
20103;BMP180;10210;52.284;9.892;2023-02-15T06:52:27;101663.00;;;7.00
20103;BMP180;10210;52.284;9.892;2023-02-15T06:54:54;101664.00;;;6.90
20103;BMP180;10210;52.284;9.892;2023-02-15T06:57:20;101666.00;;;6.90
20103;BMP180;10210;52.284;9.892;2023-02-15T06:59:46;101670.00;;;6.90
20103;BMP180;10210;52.284;9.892;2023-02-15T07:02:13;101664.00;;;6.90
20103;BMP180;10210;52.284;9.892;2023-02-15T07:04:39;101661.00;;;7.00
20103;BMP180;10210;52.284;9.892;2023-02-15T07:07:09;101653.00;;;7.00
20103;BMP180;10210;52.284;9.892;2023-02-15T07:09:36;101660.00;;;6.90
20103;BMP180;10210;52.284;9.892;2023-02-15T07:12:02;101655.00;;;7.00
20103;BMP180;10210;52.284;9.892;2023-02-15T07:14:47;101662.00;;;7.00
20103;BMP180;10210;52.284;9.892;2023-02-15T07:17:12;101664.00;;;7.00
20103;BMP180;10210;52.284;9.892;2023-02-15T07:19:38;101656.00;;;6.90
20103;BMP180;10210;52.284;9.892;2023-02-15T07:22:04;101656.00;;;6.90
20103;BMP180;10210;52.284;9.892;2023-02-15T07:24:31;101649.00;;;6.90
20103;BMP180;10210;52.284;9.892;2023-02-15T07:26:56;101653.00;;;6.90
20103;BMP180;10210;52.284;9.892;2023-02-15T07:29:23;101661.00;;;6.90
20103;BMP180;10210;52.284;9.892;2023-02-15T07:31:49;101669.00;;;6.90
20103;BMP180;10210;52.284;9.892;2023-02-15T07:34:16;101661.00;;;6.90
20103;BMP180;10210;52.284;9.892;2023-02-15T07:36:42;101669.00;;;6.90
20103;BMP180;10210;52.284;9.892;2023-02-15T07:39:10;101664.00;;;6.80
20103;BMP180;10210;52.284;9.892;2023-02-15T07:41:36;101671.00;;;6.80
20103;BMP180;10210;52.284;9.892;2023-02-15T07:44:12;101656.00;;;6.80
20103;BMP180;10210;52.284;9.892;2023-02-15T07:46:39;101663.00;;;6.80
20103;BMP180;10210;52.284;9.892;2023-02-15T07:49:05;101662.00;;;6.80
20103;BMP180;10210;52.284;9.892;2023-02-15T07:51:31;101662.00;;;6.80
20103;BMP180;10210;52.284;9.892;2023-02-15T07:53:56;101660.00;;;6.80
20103;BMP180;10210;52.284;9.892;2023-02-15T07:56:22;101666.00;;;6.80
20103;BMP180;10210;52.284;9.892;2023-02-15T07:58:48;101670.00;;;6.80
20103;BMP180;10210;52.284;9.892;2023-02-15T08:01:23;101668.00;;;6.80
20103;BMP180;10210;52.284;9.892;2023-02-15T08:03:50;101668.00;;;6.90
20103;BMP180;10210;52.284;9.892;2023-02-15T08:06:16;101670.00;;;6.90
20103;BMP180;10210;52.284;9.892;2023-02-15T08:08:42;101657.00;;;6.90
20103;BMP180;10210;52.284;9.892;2023-02-15T08:11:26;101661.00;;;6.90
20103;BMP180;10210;52.284;9.892;2023-02-15T08:14:10;101662.00;;;6.90
20103;BMP180;10210;52.284;9.892;2023-02-15T08:16:39;101655.00;;;6.90
20103;BMP180;10210;52.284;9.892;2023-02-15T08:19:09;101652.00;;;6.90
20103;BMP180;10210;52.284;9.892;2023-02-15T08:21:38;101642.00;;;6.90
20103;BMP180;10210;52.284;9.892;2023-02-15T08:24:07;101643.00;;;7.00
20103;BMP180;10210;52.284;9.892;2023-02-15T08:26:33;101644.00;;;7.00
20103;BMP180;10210;52.284;9.892;2023-02-15T08:29:00;101630.00;;;7.00
20103;BMP180;10210;52.284;9.892;2023-02-15T08:31:27;101624.00;;;7.00
20103;BMP180;10210;52.284;9.892;2023-02-15T08:33:55;101613.00;;;7.00
20103;BMP180;10210;52.284;9.892;2023-02-15T08:36:28;101605.00;;;7.00
20103;BMP180;10210;52.284;9.892;2023-02-15T08:38:57;101615.00;;;7.00
20103;BMP180;10210;52.284;9.892;2023-02-15T08:41:32;101609.00;;;7.00
20103;BMP180;10210;52.284;9.892;2023-02-15T08:44:03;101613.00;;;7.00
20103;BMP180;10210;52.284;9.892;2023-02-15T08:46:33;101602.00;;;7.10
20103;BMP180;10210;52.284;9.892;2023-02-15T08:48:59;101618.00;;;7.10
20103;BMP180;10210;52.284;9.892;2023-02-15T08:51:29;101619.00;;;7.20
20103;BMP180;10210;52.284;9.892;2023-02-15T08:53:58;101604.00;;;7.20
20103;BMP180;10210;52.284;9.892;2023-02-15T08:56:27;101602.00;;;7.30
20103;BMP180;10210;52.284;9.892;2023-02-15T08:58:54;101607.00;;;7.30
20103;BMP180;10210;52.284;9.892;2023-02-15T09:01:26;101604.00;;;7.50
20103;BMP180;10210;52.284;9.892;2023-02-15T09:04:01;101613.00;;;7.80
20103;BMP180;10210;52.284;9.892;2023-02-15T09:06:28;101599.00;;;8.20
20103;BMP180;10210;52.284;9.892;2023-02-15T09:08:55;101601.00;;;8.60
20103;BMP180;10210;52.284;9.892;2023-02-15T09:11:26;101608.00;;;9.10
20103;BMP180;10210;52.284;9.892;2023-02-15T09:14:01;101597.00;;;9.50
20103;BMP180;10210;52.284;9.892;2023-02-15T09:16:31;101613.00;;;9.90
20103;BMP180;10210;52.284;9.892;2023-02-15T09:18:58;101606.00;;;10.20
20103;BMP180;10210;52.284;9.892;2023-02-15T09:21:25;101616.00;;;10.60
20103;BMP180;10210;52.284;9.892;2023-02-15T09:23:57;101623.00;;;11.00
20103;BMP180;10210;52.284;9.892;2023-02-15T09:26:24;101615.00;;;11.30
20103;BMP180;10210;52.284;9.892;2023-02-15T09:28:56;101605.00;;;11.60
20103;BMP180;10210;52.284;9.892;2023-02-15T09:31:26;101603.00;;;11.90
20103;BMP180;10210;52.284;9.892;2023-02-15T09:33:53;101603.00;;;12.20
20103;BMP180;10210;52.284;9.892;2023-02-15T09:38:46;101609.00;;;12.40
20103;BMP180;10210;52.284;9.892;2023-02-15T09:44:53;101622.00;;;12.50
20103;BMP180;10210;52.284;9.892;2023-02-15T09:53:53;101615.00;;;12.60
20103;BMP180;10210;52.284;9.892;2023-02-15T09:56:46;101619.00;;;12.60
20103;BMP180;10210;52.284;9.892;2023-02-15T09:59:42;101613.00;;;12.60
20103;BMP180;10210;52.284;9.892;2023-02-15T10:02:44;101605.00;;;12.60
20103;BMP180;10210;52.284;9.892;2023-02-15T10:11:28;101608.00;;;12.60
20103;BMP180;10210;52.284;9.892;2023-02-15T10:17:37;101597.00;;;12.50
20103;BMP180;10210;52.284;9.892;2023-02-15T10:23:21;101604.00;;;12.60
20103;BMP180;10210;52.284;9.892;2023-02-15T10:26:37;101603.00;;;12.50
20103;BMP180;10210;52.284;9.892;2023-02-15T10:29:39;101604.00;;;12.40
20103;BMP180;10210;52.284;9.892;2023-02-15T10:32:27;101602.00;;;12.40
20103;BMP180;10210;52.284;9.892;2023-02-15T10:35:06;101616.00;;;12.40
20103;BMP180;10210;52.284;9.892;2023-02-15T10:38:02;101601.00;;;12.30
20103;BMP180;10210;52.284;9.892;2023-02-15T10:46:52;101597.00;;;11.90
20103;BMP180;10210;52.284;9.892;2023-02-15T10:49:58;101593.00;;;11.80
20103;BMP180;10210;52.284;9.892;2023-02-15T10:52:51;101593.00;;;11.60
20103;BMP180;10210;52.284;9.892;2023-02-15T10:55:59;101594.00;;;11.50
20103;BMP180;10210;52.284;9.892;2023-02-15T10:59:12;101592.00;;;11.40
20103;BMP180;10210;52.284;9.892;2023-02-15T11:02:24;101594.00;;;11.30
20103;BMP180;10210;52.284;9.892;2023-02-15T11:08:09;101595.00;;;11.20
20103;BMP180;10210;52.284;9.892;2023-02-15T11:10:58;101589.00;;;11.20
20103;BMP180;10210;52.284;9.892;2023-02-15T11:13:32;101587.00;;;11.20
20103;BMP180;10210;52.284;9.892;2023-02-15T11:16:18;101589.00;;;11.20
20103;BMP180;10210;52.284;9.892;2023-02-15T11:18:56;101585.00;;;11.10
20103;BMP180;10210;52.284;9.892;2023-02-15T11:21:27;101586.00;;;11.10
20103;BMP180;10210;52.284;9.892;2023-02-15T11:23:55;101572.00;;;11.10
20103;BMP180;10210;52.284;9.892;2023-02-15T11:26:29;101564.00;;;11.20
20103;BMP180;10210;52.284;9.892;2023-02-15T11:29:12;101567.00;;;11.20
20103;BMP180;10210;52.284;9.892;2023-02-15T11:31:47;101557.00;;;11.20
20103;BMP180;10210;52.284;9.892;2023-02-15T11:34:38;101559.00;;;11.20
20103;BMP180;10210;52.284;9.892;2023-02-15T11:37:10;101567.00;;;11.30
20103;BMP180;10210;52.284;9.892;2023-02-15T11:39:37;101577.00;;;11.40
20103;BMP180;10210;52.284;9.892;2023-02-15T11:42:16;101572.00;;;11.40
20103;BMP180;10210;52.284;9.892;2023-02-15T11:47:22;101568.00;;;11.50
20103;BMP180;10210;52.284;9.892;2023-02-15T11:49:48;101570.00;;;11.50
20103;BMP180;10210;52.284;9.892;2023-02-15T11:52:17;101564.00;;;11.50
20103;BMP180;10210;52.284;9.892;2023-02-15T11:54:50;101566.00;;;11.50
20103;BMP180;10210;52.284;9.892;2023-02-15T11:57:36;101564.00;;;11.50
20103;BMP180;10210;52.284;9.892;2023-02-15T12:02:54;101547.00;;;11.70
20103;BMP180;10210;52.284;9.892;2023-02-15T12:05:24;101544.00;;;11.70
20103;BMP180;10210;52.284;9.892;2023-02-15T12:08:20;101549.00;;;11.70
20103;BMP180;10210;52.284;9.892;2023-02-15T12:11:03;101550.00;;;11.80
20103;BMP180;10210;52.284;9.892;2023-02-15T12:13:32;101527.00;;;11.80
20103;BMP180;10210;52.284;9.892;2023-02-15T12:16:05;101540.00;;;11.90
20103;BMP180;10210;52.284;9.892;2023-02-15T12:18:42;101527.00;;;11.90
20103;BMP180;10210;52.284;9.892;2023-02-15T12:21:31;101528.00;;;11.90
20103;BMP180;10210;52.284;9.892;2023-02-15T12:24:31;101538.00;;;11.90
20103;BMP180;10210;52.284;9.892;2023-02-15T12:27:15;101532.00;;;12.00
20103;BMP180;10210;52.284;9.892;2023-02-15T12:29:46;101535.00;;;12.00
20103;BMP180;10210;52.284;9.892;2023-02-15T12:32:22;101538.00;;;12.10
20103;BMP180;10210;52.284;9.892;2023-02-15T12:34:51;101532.00;;;12.20
20103;BMP180;10210;52.284;9.892;2023-02-15T12:37:26;101538.00;;;12.20
20103;BMP180;10210;52.284;9.892;2023-02-15T12:39:59;101530.00;;;12.30
20103;BMP180;10210;52.284;9.892;2023-02-15T12:42:28;101530.00;;;12.40
20103;BMP180;10210;52.284;9.892;2023-02-15T12:45:32;101519.00;;;12.40
20103;BMP180;10210;52.284;9.892;2023-02-15T12:48:15;101518.00;;;12.40
20103;BMP180;10210;52.284;9.892;2023-02-15T12:50:45;101509.00;;;12.50
20103;BMP180;10210;52.284;9.892;2023-02-15T12:53:15;101509.00;;;12.50
20103;BMP180;10210;52.284;9.892;2023-02-15T12:56:09;101511.00;;;12.50
20103;BMP180;10210;52.284;9.892;2023-02-15T12:58:38;101519.00;;;12.60
20103;BMP180;10210;52.284;9.892;2023-02-15T13:01:19;101517.00;;;12.60
20103;BMP180;10210;52.284;9.892;2023-02-15T13:03:58;101511.00;;;12.70
20103;BMP180;10210;52.284;9.892;2023-02-15T13:06:27;101513.00;;;12.70
20103;BMP180;10210;52.284;9.892;2023-02-15T13:08:58;101511.00;;;12.70
20103;BMP180;10210;52.284;9.892;2023-02-15T13:11:30;101505.00;;;12.70
20103;BMP180;10210;52.284;9.892;2023-02-15T13:14:03;101512.00;;;12.80
20103;BMP180;10210;52.284;9.892;2023-02-15T13:16:43;101505.00;;;12.80
20103;BMP180;10210;52.284;9.892;2023-02-15T13:19:31;101502.00;;;12.90
20103;BMP180;10210;52.284;9.892;2023-02-15T13:22:05;101492.00;;;12.90
20103;BMP180;10210;52.284;9.892;2023-02-15T13:24:47;101492.00;;;13.00
20103;BMP180;10210;52.284;9.892;2023-02-15T13:27:21;101490.00;;;13.00
20103;BMP180;10210;52.284;9.892;2023-02-15T13:29:51;101475.00;;;13.10
20103;BMP180;10210;52.284;9.892;2023-02-15T13:32:33;101482.00;;;13.10
20103;BMP180;10210;52.284;9.892;2023-02-15T13:35:04;101485.00;;;13.20
20103;BMP180;10210;52.284;9.892;2023-02-15T13:38:14;101476.00;;;13.20
20103;BMP180;10210;52.284;9.892;2023-02-15T13:40:58;101481.00;;;13.20
20103;BMP180;10210;52.284;9.892;2023-02-15T13:43:28;101466.00;;;13.20
20103;BMP180;10210;52.284;9.892;2023-02-15T13:49:09;101471.00;;;13.20
20103;BMP180;10210;52.284;9.892;2023-02-15T13:51:45;101473.00;;;13.20
20103;BMP180;10210;52.284;9.892;2023-02-15T13:54:36;101464.00;;;13.20
20103;BMP180;10210;52.284;9.892;2023-02-15T13:57:20;101466.00;;;13.20
20103;BMP180;10210;52.284;9.892;2023-02-15T14:03:12;101457.00;;;13.30
20103;BMP180;10210;52.284;9.892;2023-02-15T14:09:02;101455.00;;;13.30
20103;BMP180;10210;52.284;9.892;2023-02-15T14:11:54;101459.00;;;13.40
20103;BMP180;10210;52.284;9.892;2023-02-15T14:20:41;101439.00;;;13.50
20103;BMP180;10210;52.284;9.892;2023-02-15T14:26:00;101447.00;;;13.50
20103;BMP180;10210;52.284;9.892;2023-02-15T14:29:07;101448.00;;;13.40
20103;BMP180;10210;52.284;9.892;2023-02-15T14:31:52;101454.00;;;13.40
20103;BMP180;10210;52.284;9.892;2023-02-15T14:34:30;101447.00;;;13.40
20103;BMP180;10210;52.284;9.892;2023-02-15T14:37:04;101436.00;;;13.40
20103;BMP180;10210;52.284;9.892;2023-02-15T14:39:55;101432.00;;;13.40
20103;BMP180;10210;52.284;9.892;2023-02-15T14:43:07;101434.00;;;13.30
20103;BMP180;10210;52.284;9.892;2023-02-15T14:48:42;101425.00;;;13.30
20103;BMP180;10210;52.284;9.892;2023-02-15T14:51:10;101429.00;;;13.30
20103;BMP180;10210;52.284;9.892;2023-02-15T14:53:38;101425.00;;;13.30
20103;BMP180;10210;52.284;9.892;2023-02-15T14:58:56;101417.00;;;13.30
20103;BMP180;10210;52.284;9.892;2023-02-15T15:01:35;101415.00;;;13.30
20103;BMP180;10210;52.284;9.892;2023-02-15T15:04:11;101424.00;;;13.30
20103;BMP180;10210;52.284;9.892;2023-02-15T15:06:42;101428.00;;;13.30
20103;BMP180;10210;52.284;9.892;2023-02-15T15:09:27;101422.00;;;13.30
20103;BMP180;10210;52.284;9.892;2023-02-15T15:12:14;101417.00;;;13.20
20103;BMP180;10210;52.284;9.892;2023-02-15T15:14:44;101415.00;;;13.30
20103;BMP180;10210;52.284;9.892;2023-02-15T15:20:39;101426.00;;;13.30
20103;BMP180;10210;52.284;9.892;2023-02-15T15:26:28;101425.00;;;13.30
20103;BMP180;10210;52.284;9.892;2023-02-15T15:28:57;101423.00;;;13.40
20103;BMP180;10210;52.284;9.892;2023-02-15T15:31:43;101416.00;;;13.40
20103;BMP180;10210;52.284;9.892;2023-02-15T15:34:22;101412.00;;;13.50
20103;BMP180;10210;52.284;9.892;2023-02-15T15:37:33;101424.00;;;13.50
20103;BMP180;10210;52.284;9.892;2023-02-15T15:49:15;101409.00;;;13.40
20103;BMP180;10210;52.284;9.892;2023-02-15T15:51:44;101409.00;;;13.40
20103;BMP180;10210;52.284;9.892;2023-02-15T15:54:20;101413.00;;;13.30
20103;BMP180;10210;52.284;9.892;2023-02-15T15:56:55;101409.00;;;13.30
20103;BMP180;10210;52.284;9.892;2023-02-15T15:59:26;101399.00;;;13.30
20103;BMP180;10210;52.284;9.892;2023-02-15T16:01:52;101395.00;;;13.20
20103;BMP180;10210;52.284;9.892;2023-02-15T16:04:30;101389.00;;;13.10
20103;BMP180;10210;52.284;9.892;2023-02-15T16:07:13;101398.00;;;13.10
20103;BMP180;10210;52.284;9.892;2023-02-15T16:09:39;101403.00;;;13.10
20103;BMP180;10210;52.284;9.892;2023-02-15T16:12:15;101411.00;;;13.00
20103;BMP180;10210;52.284;9.892;2023-02-15T16:14:43;101397.00;;;13.00
20103;BMP180;10210;52.284;9.892;2023-02-15T16:17:25;101391.00;;;12.90
20103;BMP180;10210;52.284;9.892;2023-02-15T16:19:53;101391.00;;;12.90